首页
METAR-TAF:

METAR-TAF

机场 :

圣约翰斯, 亞利桑那州, 美国

纬度: 34-31-06N, 经度: 109-22-45W, 海拔: 1747米

当前天气观测

该预报发布于43分钟前的13:54 UTC
风速3节,风向南转南东
温度 -4°C
湿度 80%
气压 1023 hPa
能見度: 16.1公里
天空无云

METAR: KSJN 261354Z AUTO 15003KT 10SM CLR M04/M07 A3021 RMK AO2 SLP232 T10391072

时间: 07:37 (14:37 UTC)


TAF: 丢失

超过4000个机场的气象观测和天气预报(METAR&TAF报告)。

可查询的气象台以黄色和红色小点在地图上表示。

将鼠标移到小点上方,可查看气象台名称。

然后点击查看天气观测和预报。

如需切换地图:点击带黑十字的绿色按钮放大地图;点击带横线的绿色按钮缩小地图;或者点击绿色箭头查看邻近地区的地图。


METAR-TAF: